sensor_id;sensor_type;location;lat;lon;timestamp;temperature;humidity
2300;DHT22;1158;48.750;9.078;2023-07-02T00:01:42;14.90;99.90
2300;DHT22;1158;48.750;9.078;2023-07-02T00:04:09;14.90;99.90
2300;DHT22;1158;48.750;9.078;2023-07-02T00:06:40;14.90;99.90
2300;DHT22;1158;48.750;9.078;2023-07-02T00:09:07;14.90;99.90
2300;DHT22;1158;48.750;9.078;2023-07-02T00:11:34;14.80;99.90
2300;DHT22;1158;48.750;9.078;2023-07-02T00:14:01;14.80;99.90
2300;DHT22;1158;48.750;9.078;2023-07-02T00:16:28;14.70;99.90
2300;DHT22;1158;48.750;9.078;2023-07-02T00:18:54;14.70;99.90
2300;DHT22;1158;48.750;9.078;2023-07-02T00:21:21;14.70;99.90
2300;DHT22;1158;48.750;9.078;2023-07-02T00:23:49;14.70;99.90
2300;DHT22;1158;48.750;9.078;2023-07-02T00:26:16;14.70;99.90
2300;DHT22;1158;48.750;9.078;2023-07-02T00:28:43;14.70;99.90
2300;DHT22;1158;48.750;9.078;2023-07-02T00:31:10;14.70;99.90
2300;DHT22;1158;48.750;9.078;2023-07-02T00:33:37;14.70;99.90
2300;DHT22;1158;48.750;9.078;2023-07-02T00:36:04;14.80;99.90
2300;DHT22;1158;48.750;9.078;2023-07-02T00:38:30;14.90;99.90
2300;DHT22;1158;48.750;9.078;2023-07-02T00:40:58;14.90;99.90
2300;DHT22;1158;48.750;9.078;2023-07-02T00:43:25;15.00;99.90
2300;DHT22;1158;48.750;9.078;2023-07-02T00:45:52;15.00;99.90
2300;DHT22;1158;48.750;9.078;2023-07-02T00:48:19;15.00;99.90
2300;DHT22;1158;48.750;9.078;2023-07-02T00:50:46;15.00;99.90
2300;DHT22;1158;48.750;9.078;2023-07-02T00:53:13;14.90;99.90
2300;DHT22;1158;48.750;9.078;2023-07-02T00:55:39;14.90;99.90
2300;DHT22;1158;48.750;9.078;2023-07-02T00:58:08;14.80;99.90
2300;DHT22;1158;48.750;9.078;2023-07-02T01:00:35;14.70;99.90
2300;DHT22;1158;48.750;9.078;2023-07-02T01:03:02;14.70;99.90
2300;DHT22;1158;48.750;9.078;2023-07-02T01:05:29;14.70;99.90
2300;DHT22;1158;48.750;9.078;2023-07-02T01:08:01;14.60;99.90
2300;DHT22;1158;48.750;9.078;2023-07-02T01:10:28;14.70;99.90
2300;DHT22;1158;48.750;9.078;2023-07-02T01:12:58;14.70;99.90
2300;DHT22;1158;48.750;9.078;2023-07-02T01:15:28;14.70;99.90
2300;DHT22;1158;48.750;9.078;2023-07-02T01:17:55;14.70;99.90
2300;DHT22;1158;48.750;9.078;2023-07-02T01:20:25;14.70;99.90
2300;DHT22;1158;48.750;9.078;2023-07-02T01:22:52;14.60;99.90
2300;DHT22;1158;48.750;9.078;2023-07-02T01:25:19;14.50;99.90
2300;DHT22;1158;48.750;9.078;2023-07-02T01:27:50;14.50;99.90
2300;DHT22;1158;48.750;9.078;2023-07-02T01:30:17;14.40;99.90
2300;DHT22;1158;48.750;9.078;2023-07-02T01:32:43;14.40;99.90
2300;DHT22;1158;48.750;9.078;2023-07-02T01:35:10;14.40;99.90
2300;DHT22;1158;48.750;9.078;2023-07-02T01:37:38;14.30;99.90
2300;DHT22;1158;48.750;9.078;2023-07-02T01:40:06;14.20;99.90
2300;DHT22;1158;48.750;9.078;2023-07-02T01:42:33;14.20;99.90
2300;DHT22;1158;48.750;9.078;2023-07-02T01:45:00;14.10;99.90
2300;DHT22;1158;48.750;9.078;2023-07-02T01:47:27;14.00;99.90
2300;DHT22;1158;48.750;9.078;2023-07-02T01:49:54;14.00;99.90
2300;DHT22;1158;48.750;9.078;2023-07-02T01:52:20;14.00;99.90
2300;DHT22;1158;48.750;9.078;2023-07-02T01:54:49;13.90;99.90
2300;DHT22;1158;48.750;9.078;2023-07-02T01:57:17;13.90;99.90
2300;DHT22;1158;48.750;9.078;2023-07-02T01:59:44;13.90;99.90
2300;DHT22;1158;48.750;9.078;2023-07-02T02:02:11;13.90;99.90
2300;DHT22;1158;48.750;9.078;2023-07-02T02:04:37;13.80;99.90
2300;DHT22;1158;48.750;9.078;2023-07-02T02:07:04;13.80;99.90
2300;DHT22;1158;48.750;9.078;2023-07-02T02:09:31;13.80;99.90
2300;DHT22;1158;48.750;9.078;2023-07-02T02:11:59;13.80;99.90
2300;DHT22;1158;48.750;9.078;2023-07-02T02:14:26;13.80;99.90
2300;DHT22;1158;48.750;9.078;2023-07-02T02:16:53;13.80;99.90
2300;DHT22;1158;48.750;9.078;2023-07-02T02:19:19;13.90;99.90
2300;DHT22;1158;48.750;9.078;2023-07-02T02:21:46;14.00;99.90
2300;DHT22;1158;48.750;9.078;2023-07-02T02:24:13;14.00;99.90
2300;DHT22;1158;48.750;9.078;2023-07-02T02:26:40;14.10;99.90
2300;DHT22;1158;48.750;9.078;2023-07-02T02:29:08;14.10;99.90
2300;DHT22;1158;48.750;9.078;2023-07-02T02:31:34;14.20;99.90
2300;DHT22;1158;48.750;9.078;2023-07-02T02:34:01;14.20;99.90
2300;DHT22;1158;48.750;9.078;2023-07-02T02:36:28;14.30;99.90
2300;DHT22;1158;48.750;9.078;2023-07-02T02:38:55;14.30;99.90
2300;DHT22;1158;48.750;9.078;2023-07-02T02:41:22;14.30;99.90
2300;DHT22;1158;48.750;9.078;2023-07-02T02:43:48;14.40;99.90
2300;DHT22;1158;48.750;9.078;2023-07-02T02:46:21;14.40;99.90
2300;DHT22;1158;48.750;9.078;2023-07-02T02:48:48;14.50;99.90
2300;DHT22;1158;48.750;9.078;2023-07-02T02:51:15;14.50;99.90
2300;DHT22;1158;48.750;9.078;2023-07-02T02:53:42;14.60;99.90
2300;DHT22;1158;48.750;9.078;2023-07-02T02:56:09;14.60;99.90
2300;DHT22;1158;48.750;9.078;2023-07-02T02:58:35;14.60;99.90
2300;DHT22;1158;48.750;9.078;2023-07-02T03:01:02;14.60;99.90
2300;DHT22;1158;48.750;9.078;2023-07-02T03:03:38;14.70;99.90
2300;DHT22;1158;48.750;9.078;2023-07-02T03:06:06;14.70;99.90
2300;DHT22;1158;48.750;9.078;2023-07-02T03:08:33;14.80;99.90
2300;DHT22;1158;48.750;9.078;2023-07-02T03:10:59;14.80;99.90
2300;DHT22;1158;48.750;9.078;2023-07-02T03:13:26;14.80;99.90
2300;DHT22;1158;48.750;9.078;2023-07-02T03:15:53;14.80;99.90
2300;DHT22;1158;48.750;9.078;2023-07-02T03:18:20;14.70;99.90
2300;DHT22;1158;48.750;9.078;2023-07-02T03:20:48;14.60;99.90
2300;DHT22;1158;48.750;9.078;2023-07-02T03:23:15;14.50;99.90
2300;DHT22;1158;48.750;9.078;2023-07-02T03:25:42;14.40;99.90
2300;DHT22;1158;48.750;9.078;2023-07-02T03:28:08;14.20;99.90
2300;DHT22;1158;48.750;9.078;2023-07-02T03:30:35;14.10;99.90
2300;DHT22;1158;48.750;9.078;2023-07-02T03:33:02;14.10;99.90
2300;DHT22;1158;48.750;9.078;2023-07-02T03:35:29;14.00;99.90
2300;DHT22;1158;48.750;9.078;2023-07-02T03:37:57;13.80;99.90
2300;DHT22;1158;48.750;9.078;2023-07-02T03:40:24;13.80;99.90
2300;DHT22;1158;48.750;9.078;2023-07-02T03:42:50;13.70;99.90
2300;DHT22;1158;48.750;9.078;2023-07-02T03:45:17;13.60;99.90
2300;DHT22;1158;48.750;9.078;2023-07-02T03:47:44;13.60;99.90
2300;DHT22;1158;48.750;9.078;2023-07-02T03:50:11;13.60;99.90
2300;DHT22;1158;48.750;9.078;2023-07-02T03:52:38;13.60;99.90
2300;DHT22;1158;48.750;9.078;2023-07-02T03:55:07;13.60;99.90
2300;DHT22;1158;48.750;9.078;2023-07-02T03:57:34;13.60;99.90
2300;DHT22;1158;48.750;9.078;2023-07-02T04:00:01;13.60;99.90
2300;DHT22;1158;48.750;9.078;2023-07-02T04:02:27;13.60;99.90
2300;DHT22;1158;48.750;9.078;2023-07-02T04:04:54;13.60;99.90
2300;DHT22;1158;48.750;9.078;2023-07-02T04:07:21;13.50;99.90
2300;DHT22;1158;48.750;9.078;2023-07-02T04:09:48;13.50;99.90
2300;DHT22;1158;48.750;9.078;2023-07-02T04:12:16;13.60;99.90
2300;DHT22;1158;48.750;9.078;2023-07-02T04:14:42;13.50;99.90
2300;DHT22;1158;48.750;9.078;2023-07-02T04:17:09;13.60;99.90
2300;DHT22;1158;48.750;9.078;2023-07-02T04:19:36;13.50;99.90
2300;DHT22;1158;48.750;9.078;2023-07-02T04:22:03;13.50;99.90
2300;DHT22;1158;48.750;9.078;2023-07-02T04:24:30;13.50;99.90
2300;DHT22;1158;48.750;9.078;2023-07-02T04:26:56;13.50;99.90
2300;DHT22;1158;48.750;9.078;2023-07-02T04:29:26;13.50;99.90
2300;DHT22;1158;48.750;9.078;2023-07-02T04:31:53;13.50;99.90
2300;DHT22;1158;48.750;9.078;2023-07-02T04:34:20;13.60;99.90
2300;DHT22;1158;48.750;9.078;2023-07-02T04:36:47;13.60;99.90
2300;DHT22;1158;48.750;9.078;2023-07-02T04:39:14;13.70;99.90
2300;DHT22;1158;48.750;9.078;2023-07-02T04:41:41;13.70;99.90
2300;DHT22;1158;48.750;9.078;2023-07-02T04:44:08;13.80;99.90
2300;DHT22;1158;48.750;9.078;2023-07-02T04:46:36;13.80;99.90
2300;DHT22;1158;48.750;9.078;2023-07-02T04:49:04;14.00;99.90
2300;DHT22;1158;48.750;9.078;2023-07-02T04:51:30;14.10;99.90
2300;DHT22;1158;48.750;9.078;2023-07-02T04:53:57;14.20;99.90
2300;DHT22;1158;48.750;9.078;2023-07-02T04:56:24;14.30;99.90
2300;DHT22;1158;48.750;9.078;2023-07-02T04:58:50;14.40;99.90
2300;DHT22;1158;48.750;9.078;2023-07-02T05:01:17;14.40;99.90
2300;DHT22;1158;48.750;9.078;2023-07-02T05:03:45;14.50;99.90
2300;DHT22;1158;48.750;9.078;2023-07-02T05:06:12;14.50;99.90
2300;DHT22;1158;48.750;9.078;2023-07-02T05:08:39;14.50;99.90
2300;DHT22;1158;48.750;9.078;2023-07-02T05:11:06;14.50;99.90
2300;DHT22;1158;48.750;9.078;2023-07-02T05:13:33;14.50;99.90
2300;DHT22;1158;48.750;9.078;2023-07-02T05:16:00;14.50;99.90
2300;DHT22;1158;48.750;9.078;2023-07-02T05:18:26;14.50;99.90
2300;DHT22;1158;48.750;9.078;2023-07-02T05:20:55;14.60;99.90
2300;DHT22;1158;48.750;9.078;2023-07-02T05:23:21;14.60;99.90
2300;DHT22;1158;48.750;9.078;2023-07-02T05:25:48;14.70;99.90
2300;DHT22;1158;48.750;9.078;2023-07-02T05:28:15;14.60;99.90
2300;DHT22;1158;48.750;9.078;2023-07-02T05:30:42;14.60;99.90
2300;DHT22;1158;48.750;9.078;2023-07-02T05:33:08;14.70;99.90
2300;DHT22;1158;48.750;9.078;2023-07-02T05:35:35;14.70;99.90
2300;DHT22;1158;48.750;9.078;2023-07-02T05:38:03;14.70;99.90
2300;DHT22;1158;48.750;9.078;2023-07-02T05:40:30;14.80;99.90
2300;DHT22;1158;48.750;9.078;2023-07-02T05:42:57;14.90;99.90
2300;DHT22;1158;48.750;9.078;2023-07-02T05:45:24;15.10;99.90
2300;DHT22;1158;48.750;9.078;2023-07-02T05:47:52;15.20;99.90
2300;DHT22;1158;48.750;9.078;2023-07-02T05:50:19;15.40;99.90
2300;DHT22;1158;48.750;9.078;2023-07-02T05:52:46;15.60;99.90
2300;DHT22;1158;48.750;9.078;2023-07-02T05:55:14;15.80;99.90
2300;DHT22;1158;48.750;9.078;2023-07-02T05:57:41;15.90;99.90
2300;DHT22;1158;48.750;9.078;2023-07-02T06:00:09;16.10;99.90
2300;DHT22;1158;48.750;9.078;2023-07-02T06:02:36;16.10;99.90
2300;DHT22;1158;48.750;9.078;2023-07-02T06:05:03;16.20;99.90
2300;DHT22;1158;48.750;9.078;2023-07-02T06:07:30;16.40;99.90
2300;DHT22;1158;48.750;9.078;2023-07-02T06:09:56;16.70;99.90
2300;DHT22;1158;48.750;9.078;2023-07-02T06:12:25;17.20;99.90
2300;DHT22;1158;48.750;9.078;2023-07-02T06:14:51;18.50;99.90
2300;DHT22;1158;48.750;9.078;2023-07-02T06:17:18;19.30;99.90
2300;DHT22;1158;48.750;9.078;2023-07-02T06:19:46;20.30;99.90
2300;DHT22;1158;48.750;9.078;2023-07-02T06:22:13;20.90;99.90
2300;DHT22;1158;48.750;9.078;2023-07-02T06:24:39;21.20;99.90
2300;DHT22;1158;48.750;9.078;2023-07-02T06:27:06;21.10;99.90
2300;DHT22;1158;48.750;9.078;2023-07-02T06:29:34;20.50;99.90
2300;DHT22;1158;48.750;9.078;2023-07-02T06:32:01;19.60;99.90
2300;DHT22;1158;48.750;9.078;2023-07-02T06:34:28;18.90;99.90
2300;DHT22;1158;48.750;9.078;2023-07-02T06:36:55;18.60;99.90
2300;DHT22;1158;48.750;9.078;2023-07-02T06:39:21;18.60;99.90
2300;DHT22;1158;48.750;9.078;2023-07-02T06:41:48;18.80;99.90
2300;DHT22;1158;48.750;9.078;2023-07-02T06:44:15;18.50;99.90
2300;DHT22;1158;48.750;9.078;2023-07-02T06:46:45;18.10;99.90
2300;DHT22;1158;48.750;9.078;2023-07-02T06:49:12;17.80;99.90
2300;DHT22;1158;48.750;9.078;2023-07-02T06:51:39;17.60;99.90
2300;DHT22;1158;48.750;9.078;2023-07-02T06:54:06;17.60;99.90
2300;DHT22;1158;48.750;9.078;2023-07-02T06:56:33;17.80;99.90
2300;DHT22;1158;48.750;9.078;2023-07-02T06:59:00;18.00;99.90
2300;DHT22;1158;48.750;9.078;2023-07-02T07:01:27;18.30;99.90
2300;DHT22;1158;48.750;9.078;2023-07-02T07:03:55;18.50;99.90
2300;DHT22;1158;48.750;9.078;2023-07-02T07:06:22;19.30;99.90
2300;DHT22;1158;48.750;9.078;2023-07-02T07:08:48;19.10;99.90
2300;DHT22;1158;48.750;9.078;2023-07-02T07:11:16;19.20;99.90
2300;DHT22;1158;48.750;9.078;2023-07-02T07:13:43;19.00;99.90
2300;DHT22;1158;48.750;9.078;2023-07-02T07:16:10;19.20;99.90
2300;DHT22;1158;48.750;9.078;2023-07-02T07:18:37;19.50;99.90
2300;DHT22;1158;48.750;9.078;2023-07-02T07:21:05;19.80;99.90
2300;DHT22;1158;48.750;9.078;2023-07-02T07:23:32;19.70;99.90
2300;DHT22;1158;48.750;9.078;2023-07-02T07:25:59;19.50;99.90
2300;DHT22;1158;48.750;9.078;2023-07-02T07:28:25;19.90;99.90
2300;DHT22;1158;48.750;9.078;2023-07-02T07:30:52;21.00;99.90
2300;DHT22;1158;48.750;9.078;2023-07-02T07:33:19;20.90;99.90
2300;DHT22;1158;48.750;9.078;2023-07-02T07:35:46;20.50;99.90
2300;DHT22;1158;48.750;9.078;2023-07-02T07:38:14;20.60;99.90
2300;DHT22;1158;48.750;9.078;2023-07-02T07:40:42;20.00;99.90
2300;DHT22;1158;48.750;9.078;2023-07-02T07:43:09;20.10;99.90
2300;DHT22;1158;48.750;9.078;2023-07-02T07:45:36;20.20;99.90
2300;DHT22;1158;48.750;9.078;2023-07-02T07:48:03;20.60;99.90
2300;DHT22;1158;48.750;9.078;2023-07-02T07:50:30;20.60;99.90
2300;DHT22;1158;48.750;9.078;2023-07-02T07:52:57;20.20;99.90
2300;DHT22;1158;48.750;9.078;2023-07-02T07:55:26;20.20;99.90
2300;DHT22;1158;48.750;9.078;2023-07-02T07:57:53;20.10;99.90
2300;DHT22;1158;48.750;9.078;2023-07-02T08:00:20;19.80;99.90
2300;DHT22;1158;48.750;9.078;2023-07-02T08:02:47;19.80;99.90
2300;DHT22;1158;48.750;9.078;2023-07-02T08:05:14;19.70;99.90
2300;DHT22;1158;48.750;9.078;2023-07-02T08:07:40;19.60;99.90
2300;DHT22;1158;48.750;9.078;2023-07-02T08:10:08;19.80;99.90
2300;DHT22;1158;48.750;9.078;2023-07-02T08:12:36;19.70;99.90
2300;DHT22;1158;48.750;9.078;2023-07-02T08:15:04;20.30;99.90
2300;DHT22;1158;48.750;9.078;2023-07-02T08:17:31;20.60;99.70
2300;DHT22;1158;48.750;9.078;2023-07-02T08:19:58;20.30;99.70
2300;DHT22;1158;48.750;9.078;2023-07-02T08:22:24;20.80;99.30
2300;DHT22;1158;48.750;9.078;2023-07-02T08:24:51;21.20;98.60
2300;DHT22;1158;48.750;9.078;2023-07-02T08:27:18;20.90;98.30
2300;DHT22;1158;48.750;9.078;2023-07-02T08:29:47;21.30;98.10
2300;DHT22;1158;48.750;9.078;2023-07-02T08:32:13;21.30;97.10
2300;DHT22;1158;48.750;9.078;2023-07-02T08:34:40;21.50;97.30
2300;DHT22;1158;48.750;9.078;2023-07-02T08:37:07;22.00;96.30
2300;DHT22;1158;48.750;9.078;2023-07-02T08:39:34;22.90;96.00
2300;DHT22;1158;48.750;9.078;2023-07-02T08:42:01;23.90;94.70
2300;DHT22;1158;48.750;9.078;2023-07-02T08:44:28;23.60;94.50
2300;DHT22;1158;48.750;9.078;2023-07-02T08:46:56;23.30;94.50
2300;DHT22;1158;48.750;9.078;2023-07-02T08:49:23;23.50;93.20
2300;DHT22;1158;48.750;9.078;2023-07-02T08:51:50;23.10;93.00
2300;DHT22;1158;48.750;9.078;2023-07-02T08:54:18;23.00;93.20
2300;DHT22;1158;48.750;9.078;2023-07-02T08:56:45;23.10;93.30
2300;DHT22;1158;48.750;9.078;2023-07-02T08:59:12;23.90;92.40
2300;DHT22;1158;48.750;9.078;2023-07-02T09:01:45;24.40;92.10
2300;DHT22;1158;48.750;9.078;2023-07-02T09:04:18;25.00;90.10
2300;DHT22;1158;48.750;9.078;2023-07-02T09:06:45;24.70;89.80
2300;DHT22;1158;48.750;9.078;2023-07-02T09:09:12;24.80;90.00
2300;DHT22;1158;48.750;9.078;2023-07-02T09:11:49;24.80;89.30
2300;DHT22;1158;48.750;9.078;2023-07-02T09:14:26;24.60;90.20
2300;DHT22;1158;48.750;9.078;2023-07-02T09:17:04;24.00;90.00
2300;DHT22;1158;48.750;9.078;2023-07-02T09:19:33;24.50;91.20
2300;DHT22;1158;48.750;9.078;2023-07-02T09:22:00;25.60;89.20
2300;DHT22;1158;48.750;9.078;2023-07-02T09:24:28;26.10;85.70
2300;DHT22;1158;48.750;9.078;2023-07-02T09:26:57;26.60;85.90
2300;DHT22;1158;48.750;9.078;2023-07-02T09:29:25;26.70;84.90
2300;DHT22;1158;48.750;9.078;2023-07-02T09:31:54;26.50;85.20
2300;DHT22;1158;48.750;9.078;2023-07-02T09:34:27;26.70;85.70
2300;DHT22;1158;48.750;9.078;2023-07-02T09:36:55;25.30;85.20
2300;DHT22;1158;48.750;9.078;2023-07-02T09:39:25;24.20;87.90
2300;DHT22;1158;48.750;9.078;2023-07-02T09:41:53;24.10;87.70
2300;DHT22;1158;48.750;9.078;2023-07-02T09:44:21;24.20;88.70
2300;DHT22;1158;48.750;9.078;2023-07-02T09:46:55;24.40;88.00
2300;DHT22;1158;48.750;9.078;2023-07-02T09:49:23;24.50;89.30
2300;DHT22;1158;48.750;9.078;2023-07-02T09:51:50;25.30;87.20
2300;DHT22;1158;48.750;9.078;2023-07-02T09:54:19;25.80;85.30
2300;DHT22;1158;48.750;9.078;2023-07-02T09:56:46;25.70;85.00
2300;DHT22;1158;48.750;9.078;2023-07-02T09:59:13;25.50;86.30
2300;DHT22;1158;48.750;9.078;2023-07-02T10:01:40;24.80;87.60
2300;DHT22;1158;48.750;9.078;2023-07-02T10:04:12;23.60;88.90
2300;DHT22;1158;48.750;9.078;2023-07-02T10:06:48;23.00;90.40
2300;DHT22;1158;48.750;9.078;2023-07-02T10:09:16;23.40;90.10
2300;DHT22;1158;48.750;9.078;2023-07-02T10:11:44;24.50;89.60
2300;DHT22;1158;48.750;9.078;2023-07-02T10:14:11;25.20;85.80
2300;DHT22;1158;48.750;9.078;2023-07-02T10:16:49;25.20;83.80
2300;DHT22;1158;48.750;9.078;2023-07-02T10:19:16;25.40;84.20
2300;DHT22;1158;48.750;9.078;2023-07-02T10:21:43;25.50;84.60
2300;DHT22;1158;48.750;9.078;2023-07-02T10:24:12;25.60;83.20
2300;DHT22;1158;48.750;9.078;2023-07-02T10:26:53;25.70;83.50
2300;DHT22;1158;48.750;9.078;2023-07-02T10:29:22;25.40;84.70
2300;DHT22;1158;48.750;9.078;2023-07-02T10:31:50;25.50;85.10
2300;DHT22;1158;48.750;9.078;2023-07-02T10:34:28;25.80;83.30
2300;DHT22;1158;48.750;9.078;2023-07-02T10:36:55;25.20;83.20
2300;DHT22;1158;48.750;9.078;2023-07-02T10:39:22;24.90;85.00
2300;DHT22;1158;48.750;9.078;2023-07-02T10:41:49;24.50;87.00
2300;DHT22;1158;48.750;9.078;2023-07-02T10:44:17;24.60;85.60
2300;DHT22;1158;48.750;9.078;2023-07-02T10:46:44;25.10;85.50
2300;DHT22;1158;48.750;9.078;2023-07-02T10:49:11;24.80;85.80
2300;DHT22;1158;48.750;9.078;2023-07-02T10:51:38;24.30;85.60
2300;DHT22;1158;48.750;9.078;2023-07-02T10:54:06;24.30;85.40
2300;DHT22;1158;48.750;9.078;2023-07-02T10:56:34;23.90;85.70
2300;DHT22;1158;48.750;9.078;2023-07-02T10:59:02;23.70;86.50
2300;DHT22;1158;48.750;9.078;2023-07-02T11:01:31;24.50;86.90
2300;DHT22;1158;48.750;9.078;2023-07-02T11:03:59;25.90;84.10
2300;DHT22;1158;48.750;9.078;2023-07-02T11:06:27;27.50;82.30
2300;DHT22;1158;48.750;9.078;2023-07-02T11:08:54;26.50;79.00
2300;DHT22;1158;48.750;9.078;2023-07-02T11:11:22;25.90;80.50
2300;DHT22;1158;48.750;9.078;2023-07-02T11:13:49;26.50;81.00
2300;DHT22;1158;48.750;9.078;2023-07-02T11:16:21;26.10;80.20
2300;DHT22;1158;48.750;9.078;2023-07-02T11:18:52;25.70;81.90
2300;DHT22;1158;48.750;9.078;2023-07-02T11:21:20;24.90;82.00
2300;DHT22;1158;48.750;9.078;2023-07-02T11:23:46;24.00;82.50
2300;DHT22;1158;48.750;9.078;2023-07-02T11:26:13;25.20;80.60
2300;DHT22;1158;48.750;9.078;2023-07-02T11:28:49;26.00;79.10
2300;DHT22;1158;48.750;9.078;2023-07-02T11:31:24;26.10;79.50
2300;DHT22;1158;48.750;9.078;2023-07-02T11:33:54;27.10;77.80
2300;DHT22;1158;48.750;9.078;2023-07-02T11:36:22;27.00;74.80
2300;DHT22;1158;48.750;9.078;2023-07-02T11:38:50;26.90;74.80
2300;DHT22;1158;48.750;9.078;2023-07-02T11:41:19;27.30;73.60
2300;DHT22;1158;48.750;9.078;2023-07-02T11:43:46;27.50;74.70
2300;DHT22;1158;48.750;9.078;2023-07-02T11:46:13;27.20;74.40
2300;DHT22;1158;48.750;9.078;2023-07-02T11:48:40;27.20;75.20
2300;DHT22;1158;48.750;9.078;2023-07-02T11:51:09;27.20;73.30
2300;DHT22;1158;48.750;9.078;2023-07-02T11:53:36;27.50;75.80
2300;DHT22;1158;48.750;9.078;2023-07-02T11:56:02;28.70;74.60
2300;DHT22;1158;48.750;9.078;2023-07-02T11:58:29;28.20;72.00
2300;DHT22;1158;48.750;9.078;2023-07-02T12:00:56;28.00;72.30
2300;DHT22;1158;48.750;9.078;2023-07-02T12:03:23;28.00;71.70
2300;DHT22;1158;48.750;9.078;2023-07-02T12:05:50;28.70;70.00
2300;DHT22;1158;48.750;9.078;2023-07-02T12:08:18;28.10;71.10
2300;DHT22;1158;48.750;9.078;2023-07-02T12:10:45;28.60;73.30
2300;DHT22;1158;48.750;9.078;2023-07-02T12:13:11;29.80;69.90
2300;DHT22;1158;48.750;9.078;2023-07-02T12:15:38;30.60;68.50
2300;DHT22;1158;48.750;9.078;2023-07-02T12:18:05;30.50;67.20
2300;DHT22;1158;48.750;9.078;2023-07-02T12:20:32;30.10;66.40
2300;DHT22;1158;48.750;9.078;2023-07-02T12:22:59;29.20;68.20
2300;DHT22;1158;48.750;9.078;2023-07-02T12:25:27;28.50;69.50
2300;DHT22;1158;48.750;9.078;2023-07-02T12:27:54;28.00;68.80
2300;DHT22;1158;48.750;9.078;2023-07-02T12:30:21;28.40;66.60
2300;DHT22;1158;48.750;9.078;2023-07-02T12:32:48;28.00;67.20
2300;DHT22;1158;48.750;9.078;2023-07-02T12:35:14;28.50;67.50
2300;DHT22;1158;48.750;9.078;2023-07-02T12:37:45;28.40;67.80
2300;DHT22;1158;48.750;9.078;2023-07-02T12:40:13;28.50;68.30
2300;DHT22;1158;48.750;9.078;2023-07-02T12:42:42;29.20;66.10
2300;DHT22;1158;48.750;9.078;2023-07-02T12:45:10;28.60;66.70
2300;DHT22;1158;48.750;9.078;2023-07-02T12:47:37;29.10;66.20
2300;DHT22;1158;48.750;9.078;2023-07-02T12:50:05;29.60;66.10
2300;DHT22;1158;48.750;9.078;2023-07-02T12:52:32;29.30;65.00
2300;DHT22;1158;48.750;9.078;2023-07-02T12:54:59;29.30;63.90
2300;DHT22;1158;48.750;9.078;2023-07-02T12:57:26;30.00;66.00
2300;DHT22;1158;48.750;9.078;2023-07-02T12:59:54;30.30;63.80
2300;DHT22;1158;48.750;9.078;2023-07-02T13:02:21;30.80;62.60
2300;DHT22;1158;48.750;9.078;2023-07-02T13:04:48;29.60;62.60
2300;DHT22;1158;48.750;9.078;2023-07-02T13:07:15;29.60;63.40
2300;DHT22;1158;48.750;9.078;2023-07-02T13:09:42;30.20;62.50
2300;DHT22;1158;48.750;9.078;2023-07-02T13:12:10;30.40;62.90
2300;DHT22;1158;48.750;9.078;2023-07-02T13:14:37;30.00;61.30
2300;DHT22;1158;48.750;9.078;2023-07-02T13:17:06;30.00;61.40
2300;DHT22;1158;48.750;9.078;2023-07-02T13:19:32;29.10;63.20
2300;DHT22;1158;48.750;9.078;2023-07-02T13:22:01;29.30;63.40
2300;DHT22;1158;48.750;9.078;2023-07-02T13:24:32;29.50;63.80
2300;DHT22;1158;48.750;9.078;2023-07-02T13:27:00;29.20;63.00
2300;DHT22;1158;48.750;9.078;2023-07-02T13:29:28;30.20;61.90
2300;DHT22;1158;48.750;9.078;2023-07-02T13:31:55;29.50;63.50
2300;DHT22;1158;48.750;9.078;2023-07-02T13:34:23;30.10;62.20
2300;DHT22;1158;48.750;9.078;2023-07-02T13:36:51;30.40;59.80
2300;DHT22;1158;48.750;9.078;2023-07-02T13:39:18;30.20;59.10
2300;DHT22;1158;48.750;9.078;2023-07-02T13:41:45;29.70;59.70
2300;DHT22;1158;48.750;9.078;2023-07-02T13:44:12;28.70;61.00
2300;DHT22;1158;48.750;9.078;2023-07-02T13:46:39;29.10;61.60
2300;DHT22;1158;48.750;9.078;2023-07-02T13:49:06;29.90;62.00
2300;DHT22;1158;48.750;9.078;2023-07-02T13:51:35;30.40;61.00
2300;DHT22;1158;48.750;9.078;2023-07-02T13:54:02;30.60;60.70
2300;DHT22;1158;48.750;9.078;2023-07-02T13:56:28;29.70;61.40
2300;DHT22;1158;48.750;9.078;2023-07-02T13:59:01;30.50;62.00
2300;DHT22;1158;48.750;9.078;2023-07-02T14:01:28;31.20;60.40
2300;DHT22;1158;48.750;9.078;2023-07-02T14:03:55;31.70;60.20
2300;DHT22;1158;48.750;9.078;2023-07-02T14:06:22;31.40;59.60
2300;DHT22;1158;48.750;9.078;2023-07-02T14:08:49;30.90;58.50
2300;DHT22;1158;48.750;9.078;2023-07-02T14:11:16;30.50;59.20
2300;DHT22;1158;48.750;9.078;2023-07-02T14:13:42;30.00;59.70
2300;DHT22;1158;48.750;9.078;2023-07-02T14:16:11;30.80;58.60
2300;DHT22;1158;48.750;9.078;2023-07-02T14:18:37;31.00;58.10
2300;DHT22;1158;48.750;9.078;2023-07-02T14:21:04;31.10;58.90
2300;DHT22;1158;48.750;9.078;2023-07-02T14:23:31;31.20;59.00
2300;DHT22;1158;48.750;9.078;2023-07-02T14:25:58;31.40;58.00
2300;DHT22;1158;48.750;9.078;2023-07-02T14:28:25;30.20;60.30
2300;DHT22;1158;48.750;9.078;2023-07-02T14:30:58;30.40;60.50
2300;DHT22;1158;48.750;9.078;2023-07-02T14:33:27;30.70;59.40
2300;DHT22;1158;48.750;9.078;2023-07-02T14:35:55;30.70;59.60
2300;DHT22;1158;48.750;9.078;2023-07-02T14:38:21;30.90;60.00
2300;DHT22;1158;48.750;9.078;2023-07-02T14:40:49;30.30;60.20
2300;DHT22;1158;48.750;9.078;2023-07-02T14:43:16;30.50;60.70
2300;DHT22;1158;48.750;9.078;2023-07-02T14:45:45;30.10;59.90
2300;DHT22;1158;48.750;9.078;2023-07-02T14:48:15;30.10;60.40
2300;DHT22;1158;48.750;9.078;2023-07-02T14:50:45;30.50;61.00
2300;DHT22;1158;48.750;9.078;2023-07-02T14:53:11;31.20;59.00
2300;DHT22;1158;48.750;9.078;2023-07-02T14:55:39;30.10;59.30
2300;DHT22;1158;48.750;9.078;2023-07-02T14:58:06;29.60;60.30
2300;DHT22;1158;48.750;9.078;2023-07-02T15:00:34;29.10;62.20
2300;DHT22;1158;48.750;9.078;2023-07-02T15:03:01;30.00;61.60
2300;DHT22;1158;48.750;9.078;2023-07-02T15:05:28;29.70;60.80
2300;DHT22;1158;48.750;9.078;2023-07-02T15:07:56;30.00;61.40
2300;DHT22;1158;48.750;9.078;2023-07-02T15:10:23;30.00;61.30
2300;DHT22;1158;48.750;9.078;2023-07-02T15:12:50;29.90;60.70
2300;DHT22;1158;48.750;9.078;2023-07-02T15:15:18;29.00;62.60
2300;DHT22;1158;48.750;9.078;2023-07-02T15:17:47;29.10;62.00
2300;DHT22;1158;48.750;9.078;2023-07-02T15:20:14;28.90;62.50
2300;DHT22;1158;48.750;9.078;2023-07-02T15:22:41;29.30;62.40
2300;DHT22;1158;48.750;9.078;2023-07-02T15:25:10;30.20;61.00
2300;DHT22;1158;48.750;9.078;2023-07-02T15:27:36;30.00;61.00
2300;DHT22;1158;48.750;9.078;2023-07-02T15:30:05;30.00;60.30
2300;DHT22;1158;48.750;9.078;2023-07-02T15:32:32;29.80;61.20
2300;DHT22;1158;48.750;9.078;2023-07-02T15:34:58;29.40;62.50
2300;DHT22;1158;48.750;9.078;2023-07-02T15:37:25;28.80;63.80
2300;DHT22;1158;48.750;9.078;2023-07-02T15:39:52;28.00;64.40
2300;DHT22;1158;48.750;9.078;2023-07-02T15:42:20;27.80;65.70
2300;DHT22;1158;48.750;9.078;2023-07-02T15:44:47;28.40;65.00
2300;DHT22;1158;48.750;9.078;2023-07-02T15:47:14;29.50;62.50
2300;DHT22;1158;48.750;9.078;2023-07-02T15:49:41;29.70;62.00
2300;DHT22;1158;48.750;9.078;2023-07-02T15:52:08;29.50;61.80
2300;DHT22;1158;48.750;9.078;2023-07-02T15:54:34;29.20;63.80
2300;DHT22;1158;48.750;9.078;2023-07-02T15:57:01;29.20;61.50
2300;DHT22;1158;48.750;9.078;2023-07-02T15:59:30;28.40;62.50
2300;DHT22;1158;48.750;9.078;2023-07-02T16:01:56;27.60;64.80
2300;DHT22;1158;48.750;9.078;2023-07-02T16:04:23;28.40;63.80